Terminal Aerodrome Forecast
Issued by NWS Memphis, TN

Home | Current Version | Previous Version | Text Only | Print | Product List | Glossary On
Versions: 1 2 3 4 5 6 7 8 9 10 11 12 13 14 15 16
000
FTUS44 KMEG 032320
TAFJBR
TAF
KJBR 032320Z 0400/0424 20010KT 4SM -DZ BR OVC004
     FM040700 30010KT 2SM -TSRA BR OVC001CB
     FM041300 03015G20KT 3SM -RA OVC003
     FM041600 03015G20KT 2SM -FZRAPL OVC003
     FM041800 03015G20KT 2SM PLSN OVC003=

USA.gov is the U.S. government's official web portal to all federal, state and local government web resources and services.